sensor_id;sensor_type;location;lat;lon;timestamp;P1;durP1;ratioP1;P2;durP2;ratioP2
9304;SDS011;4690;52.422;13.486;2022-12-10T00:04:08;22.90;;;16.87;;
9304;SDS011;4690;52.422;13.486;2022-12-10T00:06:35;21.30;;;17.20;;
9304;SDS011;4690;52.422;13.486;2022-12-10T00:09:03;23.53;;;17.57;;
9304;SDS011;4690;52.422;13.486;2022-12-10T00:11:32;22.00;;;16.27;;
9304;SDS011;4690;52.422;13.486;2022-12-10T00:13:58;23.93;;;16.97;;
9304;SDS011;4690;52.422;13.486;2022-12-10T00:16:25;20.40;;;15.73;;
9304;SDS011;4690;52.422;13.486;2022-12-10T00:18:53;20.90;;;17.33;;
9304;SDS011;4690;52.422;13.486;2022-12-10T00:21:21;22.50;;;17.33;;
9304;SDS011;4690;52.422;13.486;2022-12-10T00:23:51;22.33;;;16.47;;
9304;SDS011;4690;52.422;13.486;2022-12-10T00:29:03;21.30;;;17.17;;
9304;SDS011;4690;52.422;13.486;2022-12-10T00:31:32;21.60;;;16.30;;
9304;SDS011;4690;52.422;13.486;2022-12-10T00:34:01;21.47;;;16.83;;
9304;SDS011;4690;52.422;13.486;2022-12-10T00:36:32;20.37;;;15.67;;
9304;SDS011;4690;52.422;13.486;2022-12-10T00:39:04;19.77;;;15.73;;
9304;SDS011;4690;52.422;13.486;2022-12-10T00:41:30;21.30;;;16.50;;
9304;SDS011;4690;52.422;13.486;2022-12-10T00:43:56;20.17;;;16.23;;
9304;SDS011;4690;52.422;13.486;2022-12-10T00:46:22;19.70;;;16.50;;
9304;SDS011;4690;52.422;13.486;2022-12-10T00:48:48;22.97;;;17.10;;
9304;SDS011;4690;52.422;13.486;2022-12-10T00:51:18;18.70;;;15.20;;
9304;SDS011;4690;52.422;13.486;2022-12-10T00:53:48;22.73;;;17.07;;
9304;SDS011;4690;52.422;13.486;2022-12-10T00:56:18;19.70;;;15.30;;
9304;SDS011;4690;52.422;13.486;2022-12-10T00:58:51;20.00;;;15.80;;
9304;SDS011;4690;52.422;13.486;2022-12-10T01:01:19;19.83;;;15.70;;
9304;SDS011;4690;52.422;13.486;2022-12-10T01:03:49;21.50;;;16.37;;
9304;SDS011;4690;52.422;13.486;2022-12-10T01:06:23;22.30;;;17.00;;
9304;SDS011;4690;52.422;13.486;2022-12-10T01:08:59;23.03;;;17.90;;
9304;SDS011;4690;52.422;13.486;2022-12-10T01:11:31;21.90;;;16.33;;
9304;SDS011;4690;52.422;13.486;2022-12-10T01:14:00;20.90;;;15.87;;
9304;SDS011;4690;52.422;13.486;2022-12-10T01:16:26;20.83;;;16.63;;
9304;SDS011;4690;52.422;13.486;2022-12-10T01:18:53;22.83;;;17.00;;
9304;SDS011;4690;52.422;13.486;2022-12-10T01:21:23;22.23;;;15.63;;
9304;SDS011;4690;52.422;13.486;2022-12-10T01:23:52;22.37;;;16.40;;
9304;SDS011;4690;52.422;13.486;2022-12-10T01:26:23;23.27;;;17.03;;
9304;SDS011;4690;52.422;13.486;2022-12-10T01:28:51;21.50;;;17.23;;
9304;SDS011;4690;52.422;13.486;2022-12-10T01:31:23;22.13;;;17.13;;
9304;SDS011;4690;52.422;13.486;2022-12-10T01:33:54;23.27;;;16.70;;
9304;SDS011;4690;52.422;13.486;2022-12-10T01:36:25;23.20;;;17.13;;
9304;SDS011;4690;52.422;13.486;2022-12-10T01:38:58;22.03;;;17.27;;
9304;SDS011;4690;52.422;13.486;2022-12-10T01:41:27;23.60;;;17.50;;
9304;SDS011;4690;52.422;13.486;2022-12-10T01:46:38;23.97;;;18.07;;
9304;SDS011;4690;52.422;13.486;2022-12-10T01:49:09;22.80;;;17.43;;
9304;SDS011;4690;52.422;13.486;2022-12-10T01:51:44;21.23;;;16.67;;
9304;SDS011;4690;52.422;13.486;2022-12-10T01:54:15;25.60;;;18.20;;
9304;SDS011;4690;52.422;13.486;2022-12-10T01:56:57;24.93;;;17.97;;
9304;SDS011;4690;52.422;13.486;2022-12-10T01:59:32;24.07;;;17.23;;
9304;SDS011;4690;52.422;13.486;2022-12-10T02:04:46;23.83;;;17.07;;
9304;SDS011;4690;52.422;13.486;2022-12-10T02:14:10;24.23;;;17.40;;
9304;SDS011;4690;52.422;13.486;2022-12-10T02:17:14;22.40;;;16.97;;
9304;SDS011;4690;52.422;13.486;2022-12-10T02:20:09;23.33;;;17.63;;
9304;SDS011;4690;52.422;13.486;2022-12-10T02:23:10;24.53;;;16.47;;
9304;SDS011;4690;52.422;13.486;2022-12-10T02:31:42;22.57;;;16.83;;
9304;SDS011;4690;52.422;13.486;2022-12-10T02:34:17;22.40;;;17.47;;
9304;SDS011;4690;52.422;13.486;2022-12-10T02:36:47;23.67;;;18.20;;
9304;SDS011;4690;52.422;13.486;2022-12-10T02:39:22;22.07;;;16.97;;
9304;SDS011;4690;52.422;13.486;2022-12-10T02:41:54;23.67;;;18.10;;
9304;SDS011;4690;52.422;13.486;2022-12-10T02:44:21;23.10;;;17.57;;
9304;SDS011;4690;52.422;13.486;2022-12-10T02:46:52;22.57;;;17.57;;
9304;SDS011;4690;52.422;13.486;2022-12-10T02:49:21;22.23;;;17.20;;
9304;SDS011;4690;52.422;13.486;2022-12-10T02:51:51;23.73;;;17.67;;
9304;SDS011;4690;52.422;13.486;2022-12-10T02:57:29;22.37;;;17.03;;
9304;SDS011;4690;52.422;13.486;2022-12-10T03:05:45;22.23;;;17.13;;
9304;SDS011;4690;52.422;13.486;2022-12-10T03:08:21;19.60;;;16.43;;
9304;SDS011;4690;52.422;13.486;2022-12-10T03:13:32;20.73;;;17.20;;
9304;SDS011;4690;52.422;13.486;2022-12-10T03:16:05;21.70;;;17.23;;
9304;SDS011;4690;52.422;13.486;2022-12-10T03:18:34;21.60;;;17.07;;
9304;SDS011;4690;52.422;13.486;2022-12-10T03:21:04;22.90;;;17.30;;
9304;SDS011;4690;52.422;13.486;2022-12-10T03:23:32;22.50;;;18.63;;
9304;SDS011;4690;52.422;13.486;2022-12-10T03:26:04;24.87;;;18.07;;
9304;SDS011;4690;52.422;13.486;2022-12-10T03:28:35;24.57;;;18.33;;
9304;SDS011;4690;52.422;13.486;2022-12-10T03:31:09;22.87;;;18.53;;
9304;SDS011;4690;52.422;13.486;2022-12-10T03:33:38;24.00;;;17.57;;
9304;SDS011;4690;52.422;13.486;2022-12-10T03:36:06;22.97;;;17.43;;
9304;SDS011;4690;52.422;13.486;2022-12-10T03:38:33;23.47;;;18.13;;
9304;SDS011;4690;52.422;13.486;2022-12-10T03:41:02;21.33;;;16.73;;
9304;SDS011;4690;52.422;13.486;2022-12-10T03:43:28;22.77;;;17.47;;
9304;SDS011;4690;52.422;13.486;2022-12-10T03:45:54;24.00;;;18.43;;
9304;SDS011;4690;52.422;13.486;2022-12-10T03:48:19;24.50;;;17.73;;
9304;SDS011;4690;52.422;13.486;2022-12-10T03:50:45;20.80;;;16.80;;
9304;SDS011;4690;52.422;13.486;2022-12-10T03:53:11;22.83;;;17.43;;
9304;SDS011;4690;52.422;13.486;2022-12-10T03:55:37;22.17;;;17.63;;
9304;SDS011;4690;52.422;13.486;2022-12-10T03:58:03;24.37;;;18.47;;
9304;SDS011;4690;52.422;13.486;2022-12-10T04:00:29;24.87;;;18.77;;
9304;SDS011;4690;52.422;13.486;2022-12-10T04:02:55;23.50;;;17.53;;
9304;SDS011;4690;52.422;13.486;2022-12-10T04:05:20;23.60;;;17.97;;
9304;SDS011;4690;52.422;13.486;2022-12-10T04:07:46;23.17;;;17.37;;
9304;SDS011;4690;52.422;13.486;2022-12-10T04:10:12;24.83;;;18.23;;
9304;SDS011;4690;52.422;13.486;2022-12-10T04:12:38;24.33;;;18.30;;
9304;SDS011;4690;52.422;13.486;2022-12-10T04:15:04;26.40;;;19.10;;
9304;SDS011;4690;52.422;13.486;2022-12-10T04:17:49;26.30;;;19.17;;
9304;SDS011;4690;52.422;13.486;2022-12-10T04:20:14;26.67;;;19.70;;
9304;SDS011;4690;52.422;13.486;2022-12-10T04:23:03;26.23;;;19.63;;
9304;SDS011;4690;52.422;13.486;2022-12-10T04:25:47;27.30;;;19.67;;
9304;SDS011;4690;52.422;13.486;2022-12-10T04:28:31;28.10;;;20.57;;
9304;SDS011;4690;52.422;13.486;2022-12-10T04:30:57;24.43;;;19.17;;
9304;SDS011;4690;52.422;13.486;2022-12-10T04:33:23;26.63;;;19.40;;
9304;SDS011;4690;52.422;13.486;2022-12-10T04:35:48;25.90;;;19.40;;
9304;SDS011;4690;52.422;13.486;2022-12-10T04:38:17;26.70;;;19.47;;
9304;SDS011;4690;52.422;13.486;2022-12-10T04:40:43;25.93;;;19.50;;
9304;SDS011;4690;52.422;13.486;2022-12-10T04:43:09;26.20;;;19.67;;
9304;SDS011;4690;52.422;13.486;2022-12-10T04:45:34;25.23;;;19.87;;
9304;SDS011;4690;52.422;13.486;2022-12-10T04:48:00;26.57;;;19.33;;
9304;SDS011;4690;52.422;13.486;2022-12-10T04:50:26;26.73;;;20.10;;
9304;SDS011;4690;52.422;13.486;2022-12-10T04:52:52;27.97;;;20.40;;
9304;SDS011;4690;52.422;13.486;2022-12-10T04:55:18;26.40;;;20.33;;
9304;SDS011;4690;52.422;13.486;2022-12-10T04:57:43;28.70;;;20.57;;
9304;SDS011;4690;52.422;13.486;2022-12-10T05:00:09;26.57;;;19.93;;
9304;SDS011;4690;52.422;13.486;2022-12-10T05:02:36;25.17;;;19.43;;
9304;SDS011;4690;52.422;13.486;2022-12-10T05:05:02;26.23;;;19.77;;
9304;SDS011;4690;52.422;13.486;2022-12-10T05:07:27;26.13;;;20.00;;
9304;SDS011;4690;52.422;13.486;2022-12-10T05:09:53;27.07;;;19.63;;
9304;SDS011;4690;52.422;13.486;2022-12-10T05:12:19;26.57;;;19.80;;
9304;SDS011;4690;52.422;13.486;2022-12-10T05:14:45;27.03;;;20.93;;
9304;SDS011;4690;52.422;13.486;2022-12-10T05:17:10;27.73;;;21.07;;
9304;SDS011;4690;52.422;13.486;2022-12-10T05:19:36;27.97;;;20.83;;
9304;SDS011;4690;52.422;13.486;2022-12-10T05:22:02;27.83;;;20.90;;
9304;SDS011;4690;52.422;13.486;2022-12-10T05:24:46;29.47;;;21.27;;
9304;SDS011;4690;52.422;13.486;2022-12-10T05:27:11;25.93;;;19.87;;
9304;SDS011;4690;52.422;13.486;2022-12-10T05:29:37;25.37;;;20.20;;
9304;SDS011;4690;52.422;13.486;2022-12-10T05:32:03;27.10;;;20.33;;
9304;SDS011;4690;52.422;13.486;2022-12-10T05:34:30;28.13;;;20.87;;
9304;SDS011;4690;52.422;13.486;2022-12-10T05:36:55;28.13;;;21.13;;
9304;SDS011;4690;52.422;13.486;2022-12-10T05:39:21;25.87;;;20.27;;
9304;SDS011;4690;52.422;13.486;2022-12-10T05:41:47;26.47;;;20.23;;
9304;SDS011;4690;52.422;13.486;2022-12-10T05:44:12;26.03;;;20.27;;
9304;SDS011;4690;52.422;13.486;2022-12-10T05:46:38;27.07;;;20.77;;
9304;SDS011;4690;52.422;13.486;2022-12-10T05:49:05;27.27;;;21.27;;
9304;SDS011;4690;52.422;13.486;2022-12-10T05:51:32;27.50;;;20.20;;
9304;SDS011;4690;52.422;13.486;2022-12-10T05:54:02;28.80;;;21.50;;
9304;SDS011;4690;52.422;13.486;2022-12-10T05:56:29;26.50;;;20.37;;
9304;SDS011;4690;52.422;13.486;2022-12-10T05:58:59;25.47;;;19.63;;
9304;SDS011;4690;52.422;13.486;2022-12-10T06:01:29;29.20;;;21.27;;
9304;SDS011;4690;52.422;13.486;2022-12-10T06:03:58;27.93;;;21.53;;
9304;SDS011;4690;52.422;13.486;2022-12-10T06:06:27;26.77;;;20.93;;
9304;SDS011;4690;52.422;13.486;2022-12-10T06:08:56;27.27;;;21.27;;
9304;SDS011;4690;52.422;13.486;2022-12-10T06:11:23;28.27;;;21.57;;
9304;SDS011;4690;52.422;13.486;2022-12-10T06:13:51;27.57;;;21.70;;
9304;SDS011;4690;52.422;13.486;2022-12-10T06:16:17;27.57;;;21.50;;
9304;SDS011;4690;52.422;13.486;2022-12-10T06:18:43;26.20;;;20.47;;
9304;SDS011;4690;52.422;13.486;2022-12-10T06:21:10;28.23;;;20.90;;
9304;SDS011;4690;52.422;13.486;2022-12-10T06:23:39;27.17;;;20.53;;
9304;SDS011;4690;52.422;13.486;2022-12-10T06:26:08;25.27;;;19.63;;
9304;SDS011;4690;52.422;13.486;2022-12-10T06:28:37;27.70;;;20.90;;
9304;SDS011;4690;52.422;13.486;2022-12-10T06:31:04;28.07;;;20.63;;
9304;SDS011;4690;52.422;13.486;2022-12-10T06:33:30;27.40;;;20.70;;
9304;SDS011;4690;52.422;13.486;2022-12-10T06:35:56;26.27;;;20.23;;
9304;SDS011;4690;52.422;13.486;2022-12-10T06:38:22;25.63;;;20.33;;
9304;SDS011;4690;52.422;13.486;2022-12-10T06:40:48;24.53;;;19.67;;
9304;SDS011;4690;52.422;13.486;2022-12-10T06:43:14;26.37;;;20.23;;
9304;SDS011;4690;52.422;13.486;2022-12-10T06:45:40;25.07;;;19.83;;
9304;SDS011;4690;52.422;13.486;2022-12-10T06:48:07;27.07;;;20.43;;
9304;SDS011;4690;52.422;13.486;2022-12-10T06:50:33;24.97;;;20.03;;
9304;SDS011;4690;52.422;13.486;2022-12-10T06:53:00;24.53;;;19.07;;
9304;SDS011;4690;52.422;13.486;2022-12-10T06:55:27;25.80;;;19.80;;
9304;SDS011;4690;52.422;13.486;2022-12-10T06:57:53;24.83;;;19.33;;
9304;SDS011;4690;52.422;13.486;2022-12-10T07:00:20;23.53;;;18.67;;
9304;SDS011;4690;52.422;13.486;2022-12-10T07:02:47;24.17;;;19.27;;
9304;SDS011;4690;52.422;13.486;2022-12-10T07:05:13;27.00;;;20.37;;
9304;SDS011;4690;52.422;13.486;2022-12-10T07:07:39;24.13;;;19.83;;
9304;SDS011;4690;52.422;13.486;2022-12-10T07:10:05;22.27;;;18.83;;
9304;SDS011;4690;52.422;13.486;2022-12-10T07:12:32;24.10;;;20.03;;
9304;SDS011;4690;52.422;13.486;2022-12-10T07:14:57;21.27;;;17.33;;
9304;SDS011;4690;52.422;13.486;2022-12-10T07:17:23;22.90;;;18.27;;
9304;SDS011;4690;52.422;13.486;2022-12-10T07:19:49;21.97;;;17.77;;
9304;SDS011;4690;52.422;13.486;2022-12-10T07:22:15;22.80;;;18.30;;
9304;SDS011;4690;52.422;13.486;2022-12-10T07:24:41;21.73;;;18.07;;
9304;SDS011;4690;52.422;13.486;2022-12-10T07:27:07;22.67;;;18.57;;
9304;SDS011;4690;52.422;13.486;2022-12-10T07:29:33;22.83;;;18.37;;
9304;SDS011;4690;52.422;13.486;2022-12-10T07:32:00;21.37;;;17.73;;
9304;SDS011;4690;52.422;13.486;2022-12-10T07:34:26;21.83;;;18.07;;
9304;SDS011;4690;52.422;13.486;2022-12-10T07:36:52;21.47;;;18.13;;
9304;SDS011;4690;52.422;13.486;2022-12-10T07:39:18;22.53;;;18.00;;
9304;SDS011;4690;52.422;13.486;2022-12-10T07:41:50;19.40;;;17.20;;
9304;SDS011;4690;52.422;13.486;2022-12-10T07:44:18;20.87;;;17.67;;
9304;SDS011;4690;52.422;13.486;2022-12-10T07:46:50;21.03;;;17.73;;
9304;SDS011;4690;52.422;13.486;2022-12-10T07:49:18;20.10;;;17.40;;
9304;SDS011;4690;52.422;13.486;2022-12-10T07:51:45;19.87;;;17.37;;
9304;SDS011;4690;52.422;13.486;2022-12-10T07:54:12;21.20;;;17.30;;
9304;SDS011;4690;52.422;13.486;2022-12-10T07:56:39;19.57;;;17.23;;
9304;SDS011;4690;52.422;13.486;2022-12-10T07:59:05;20.27;;;17.70;;
9304;SDS011;4690;52.422;13.486;2022-12-10T08:01:31;19.50;;;15.63;;
9304;SDS011;4690;52.422;13.486;2022-12-10T08:03:57;19.20;;;17.10;;
9304;SDS011;4690;52.422;13.486;2022-12-10T08:06:23;18.40;;;16.23;;
9304;SDS011;4690;52.422;13.486;2022-12-10T08:08:53;18.53;;;16.37;;
9304;SDS011;4690;52.422;13.486;2022-12-10T08:11:19;18.90;;;16.70;;
9304;SDS011;4690;52.422;13.486;2022-12-10T08:13:47;17.53;;;15.67;;
9304;SDS011;4690;52.422;13.486;2022-12-10T08:16:14;22.37;;;16.70;;
9304;SDS011;4690;52.422;13.486;2022-12-10T08:18:47;18.47;;;16.57;;
9304;SDS011;4690;52.422;13.486;2022-12-10T08:21:17;20.47;;;17.10;;
9304;SDS011;4690;52.422;13.486;2022-12-10T08:23:47;19.23;;;16.73;;
9304;SDS011;4690;52.422;13.486;2022-12-10T08:26:24;19.97;;;16.93;;
9304;SDS011;4690;52.422;13.486;2022-12-10T08:28:53;19.83;;;17.20;;
9304;SDS011;4690;52.422;13.486;2022-12-10T08:31:21;18.67;;;16.60;;
9304;SDS011;4690;52.422;13.486;2022-12-10T08:33:49;17.87;;;15.97;;
9304;SDS011;4690;52.422;13.486;2022-12-10T08:36:16;17.80;;;15.90;;
9304;SDS011;4690;52.422;13.486;2022-12-10T08:38:44;18.10;;;16.10;;
9304;SDS011;4690;52.422;13.486;2022-12-10T08:41:12;17.80;;;15.83;;
9304;SDS011;4690;52.422;13.486;2022-12-10T08:43:41;17.77;;;15.87;;
9304;SDS011;4690;52.422;13.486;2022-12-10T08:46:09;18.73;;;16.73;;
9304;SDS011;4690;52.422;13.486;2022-12-10T08:48:37;17.73;;;15.90;;
9304;SDS011;4690;52.422;13.486;2022-12-10T08:51:04;18.43;;;15.70;;
9304;SDS011;4690;52.422;13.486;2022-12-10T08:53:32;17.97;;;16.07;;
9304;SDS011;4690;52.422;13.486;2022-12-10T08:55:59;18.73;;;16.43;;
9304;SDS011;4690;52.422;13.486;2022-12-10T08:58:25;17.07;;;15.37;;
9304;SDS011;4690;52.422;13.486;2022-12-10T09:00:50;17.97;;;15.90;;
9304;SDS011;4690;52.422;13.486;2022-12-10T09:03:17;17.27;;;15.47;;
9304;SDS011;4690;52.422;13.486;2022-12-10T09:05:43;17.37;;;15.57;;
9304;SDS011;4690;52.422;13.486;2022-12-10T09:08:10;17.77;;;15.97;;
9304;SDS011;4690;52.422;13.486;2022-12-10T09:10:36;16.80;;;15.00;;
9304;SDS011;4690;52.422;13.486;2022-12-10T09:13:04;17.93;;;16.03;;
9304;SDS011;4690;52.422;13.486;2022-12-10T09:15:31;19.37;;;17.30;;
9304;SDS011;4690;52.422;13.486;2022-12-10T09:17:57;17.40;;;15.60;;
9304;SDS011;4690;52.422;13.486;2022-12-10T09:20:23;17.37;;;15.57;;
9304;SDS011;4690;52.422;13.486;2022-12-10T09:22:49;17.07;;;15.27;;
9304;SDS011;4690;52.422;13.486;2022-12-10T09:25:15;17.57;;;15.77;;
9304;SDS011;4690;52.422;13.486;2022-12-10T09:27:41;18.80;;;16.80;;
9304;SDS011;4690;52.422;13.486;2022-12-10T09:30:08;18.83;;;16.57;;
9304;SDS011;4690;52.422;13.486;2022-12-10T09:32:36;19.13;;;16.67;;
9304;SDS011;4690;52.422;13.486;2022-12-10T09:35:02;19.53;;;17.23;;
9304;SDS011;4690;52.422;13.486;2022-12-10T09:37:28;18.77;;;16.80;;
9304;SDS011;4690;52.422;13.486;2022-12-10T09:39:55;17.73;;;15.50;;
9304;SDS011;4690;52.422;13.486;2022-12-10T09:42:24;18.23;;;16.30;;
9304;SDS011;4690;52.422;13.486;2022-12-10T09:51:03;16.77;;;15.10;;
9304;SDS011;4690;52.422;13.486;2022-12-10T09:53:35;16.83;;;15.03;;
9304;SDS011;4690;52.422;13.486;2022-12-10T09:56:03;15.50;;;13.80;;
9304;SDS011;4690;52.422;13.486;2022-12-10T09:58:31;15.90;;;13.50;;
9304;SDS011;4690;52.422;13.486;2022-12-10T10:01:00;15.27;;;13.77;;
9304;SDS011;4690;52.422;13.486;2022-12-10T10:03:31;16.93;;;14.80;;
9304;SDS011;4690;52.422;13.486;2022-12-10T10:06:02;16.30;;;14.33;;
9304;SDS011;4690;52.422;13.486;2022-12-10T10:08:48;16.87;;;15.17;;
9304;SDS011;4690;52.422;13.486;2022-12-10T10:11:21;17.57;;;15.77;;
9304;SDS011;4690;52.422;13.486;2022-12-10T10:13:54;16.93;;;14.87;;
9304;SDS011;4690;52.422;13.486;2022-12-10T10:16:32;15.73;;;14.13;;
9304;SDS011;4690;52.422;13.486;2022-12-10T10:19:14;16.20;;;14.50;;
9304;SDS011;4690;52.422;13.486;2022-12-10T10:21:46;15.90;;;14.23;;
9304;SDS011;4690;52.422;13.486;2022-12-10T10:24:36;15.57;;;13.97;;
9304;SDS011;4690;52.422;13.486;2022-12-10T10:27:16;16.33;;;14.63;;
9304;SDS011;4690;52.422;13.486;2022-12-10T10:29:55;17.33;;;14.97;;
9304;SDS011;4690;52.422;13.486;2022-12-10T10:32:26;16.83;;;15.03;;
9304;SDS011;4690;52.422;13.486;2022-12-10T10:35:47;17.43;;;15.63;;
9304;SDS011;4690;52.422;13.486;2022-12-10T10:38:28;16.73;;;14.93;;
9304;SDS011;4690;52.422;13.486;2022-12-10T10:40:57;18.53;;;16.63;;
9304;SDS011;4690;52.422;13.486;2022-12-10T10:43:32;16.97;;;15.17;;
9304;SDS011;4690;52.422;13.486;2022-12-10T10:46:16;19.27;;;16.03;;
9304;SDS011;4690;52.422;13.486;2022-12-10T10:48:47;16.67;;;14.87;;
9304;SDS011;4690;52.422;13.486;2022-12-10T10:53:47;16.87;;;15.07;;
9304;SDS011;4690;52.422;13.486;2022-12-10T10:56:31;17.23;;;15.20;;
9304;SDS011;4690;52.422;13.486;2022-12-10T11:01:54;16.50;;;14.80;;
9304;SDS011;4690;52.422;13.486;2022-12-10T11:07:01;18.07;;;16.27;;
9304;SDS011;4690;52.422;13.486;2022-12-10T11:09:31;16.57;;;14.83;;
9304;SDS011;4690;52.422;13.486;2022-12-10T11:11:59;16.13;;;14.43;;
9304;SDS011;4690;52.422;13.486;2022-12-10T11:17:24;16.03;;;14.33;;
9304;SDS011;4690;52.422;13.486;2022-12-10T11:19:58;17.10;;;15.40;;
9304;SDS011;4690;52.422;13.486;2022-12-10T11:22:30;16.63;;;14.83;;
9304;SDS011;4690;52.422;13.486;2022-12-10T11:24:58;17.17;;;15.47;;
9304;SDS011;4690;52.422;13.486;2022-12-10T11:30:17;17.13;;;15.33;;
9304;SDS011;4690;52.422;13.486;2022-12-10T11:35:26;16.47;;;14.77;;
9304;SDS011;4690;52.422;13.486;2022-12-10T11:50:20;17.97;;;16.17;;
9304;SDS011;4690;52.422;13.486;2022-12-10T12:14:32;18.33;;;16.27;;
9304;SDS011;4690;52.422;13.486;2022-12-10T12:17:20;18.43;;;16.50;;
9304;SDS011;4690;52.422;13.486;2022-12-10T12:19:58;19.57;;;17.30;;
9304;SDS011;4690;52.422;13.486;2022-12-10T12:22:38;18.13;;;16.23;;
9304;SDS011;4690;52.422;13.486;2022-12-10T12:25:17;18.17;;;16.27;;
9304;SDS011;4690;52.422;13.486;2022-12-10T12:28:19;20.10;;;17.07;;
9304;SDS011;4690;52.422;13.486;2022-12-10T12:31:10;17.70;;;15.53;;
9304;SDS011;4690;52.422;13.486;2022-12-10T12:33:47;18.60;;;16.67;;
9304;SDS011;4690;52.422;13.486;2022-12-10T12:36:42;19.57;;;17.47;;
9304;SDS011;4690;52.422;13.486;2022-12-10T12:39:17;19.53;;;17.53;;
9304;SDS011;4690;52.422;13.486;2022-12-10T12:45:13;19.37;;;17.37;;
9304;SDS011;4690;52.422;13.486;2022-12-10T12:51:03;19.53;;;17.53;;
9304;SDS011;4690;52.422;13.486;2022-12-10T12:53:50;18.80;;;16.47;;
9304;SDS011;4690;52.422;13.486;2022-12-10T12:59:12;19.20;;;17.23;;
9304;SDS011;4690;52.422;13.486;2022-12-10T13:05:11;19.90;;;17.73;;
9304;SDS011;4690;52.422;13.486;2022-12-10T13:10:46;19.27;;;17.23;;
9304;SDS011;4690;52.422;13.486;2022-12-10T13:13:23;19.03;;;16.93;;
9304;SDS011;4690;52.422;13.486;2022-12-10T13:27:04;19.27;;;17.27;;
9304;SDS011;4690;52.422;13.486;2022-12-10T13:37:35;89.73;;;79.23;;
9304;SDS011;4690;52.422;13.486;2022-12-10T13:43:29;58.40;;;52.10;;
9304;SDS011;4690;52.422;13.486;2022-12-10T13:48:51;23.43;;;20.93;;
9304;SDS011;4690;52.422;13.486;2022-12-10T13:59:46;20.20;;;18.10;;
9304;SDS011;4690;52.422;13.486;2022-12-10T14:05:24;20.17;;;17.97;;
9304;SDS011;4690;52.422;13.486;2022-12-10T14:08:02;21.17;;;18.97;;
9304;SDS011;4690;52.422;13.486;2022-12-10T14:10:31;21.13;;;18.53;;
9304;SDS011;4690;52.422;13.486;2022-12-10T14:13:02;21.70;;;19.50;;
9304;SDS011;4690;52.422;13.486;2022-12-10T14:15:30;24.80;;;21.00;;
9304;SDS011;4690;52.422;13.486;2022-12-10T14:18:01;22.20;;;19.17;;
9304;SDS011;4690;52.422;13.486;2022-12-10T14:20:35;21.30;;;19.10;;
9304;SDS011;4690;52.422;13.486;2022-12-10T14:23:29;21.07;;;18.77;;
9304;SDS011;4690;52.422;13.486;2022-12-10T14:26:13;19.70;;;17.60;;
9304;SDS011;4690;52.422;13.486;2022-12-10T14:28:55;20.57;;;17.70;;
9304;SDS011;4690;52.422;13.486;2022-12-10T14:31:41;18.20;;;16.30;;
9304;SDS011;4690;52.422;13.486;2022-12-10T14:34:17;22.27;;;19.20;;
9304;SDS011;4690;52.422;13.486;2022-12-10T14:36:50;20.50;;;18.30;;
9304;SDS011;4690;52.422;13.486;2022-12-10T14:39:27;19.77;;;17.67;;
9304;SDS011;4690;52.422;13.486;2022-12-10T14:42:02;20.10;;;17.37;;
9304;SDS011;4690;52.422;13.486;2022-12-10T14:44:32;19.33;;;16.97;;
9304;SDS011;4690;52.422;13.486;2022-12-10T14:47:06;21.40;;;17.73;;
9304;SDS011;4690;52.422;13.486;2022-12-10T14:49:42;22.30;;;17.70;;
9304;SDS011;4690;52.422;13.486;2022-12-10T14:52:12;22.30;;;19.20;;
9304;SDS011;4690;52.422;13.486;2022-12-10T14:54:45;22.50;;;18.47;;
9304;SDS011;4690;52.422;13.486;2022-12-10T14:57:15;23.83;;;18.43;;
9304;SDS011;4690;52.422;13.486;2022-12-10T14:59:58;21.47;;;17.57;;
9304;SDS011;4690;52.422;13.486;2022-12-10T15:02:38;24.47;;;18.37;;
9304;SDS011;4690;52.422;13.486;2022-12-10T15:05:16;22.10;;;19.07;;
9304;SDS011;4690;52.422;13.486;2022-12-10T15:08:00;23.30;;;18.73;;
9304;SDS011;4690;52.422;13.486;2022-12-10T15:13:01;24.33;;;19.00;;
9304;SDS011;4690;52.422;13.486;2022-12-10T15:18:09;26.00;;;19.60;;
9304;SDS011;4690;52.422;13.486;2022-12-10T15:25:52;25.17;;;19.43;;
9304;SDS011;4690;52.422;13.486;2022-12-10T15:31:49;24.33;;;17.83;;
9304;SDS011;4690;52.422;13.486;2022-12-10T15:34:25;25.70;;;19.70;;
9304;SDS011;4690;52.422;13.486;2022-12-10T15:37:02;26.67;;;19.27;;
9304;SDS011;4690;52.422;13.486;2022-12-10T15:39:31;25.93;;;19.00;;
9304;SDS011;4690;52.422;13.486;2022-12-10T15:42:25;24.33;;;19.20;;
9304;SDS011;4690;52.422;13.486;2022-12-10T15:45:08;25.37;;;18.90;;
9304;SDS011;4690;52.422;13.486;2022-12-10T15:47:56;27.63;;;20.17;;
9304;SDS011;4690;52.422;13.486;2022-12-10T15:50:23;27.03;;;20.40;;
9304;SDS011;4690;52.422;13.486;2022-12-10T15:52:50;27.97;;;21.30;;
9304;SDS011;4690;52.422;13.486;2022-12-10T15:55:17;26.60;;;19.40;;
9304;SDS011;4690;52.422;13.486;2022-12-10T15:57:43;27.23;;;20.10;;
9304;SDS011;4690;52.422;13.486;2022-12-10T16:00:18;23.83;;;18.93;;
9304;SDS011;4690;52.422;13.486;2022-12-10T16:03:02;27.10;;;19.73;;
9304;SDS011;4690;52.422;13.486;2022-12-10T16:05:34;27.50;;;20.33;;
9304;SDS011;4690;52.422;13.486;2022-12-10T16:08:21;31.23;;;23.20;;
9304;SDS011;4690;52.422;13.486;2022-12-10T16:10:51;29.30;;;20.83;;
9304;SDS011;4690;52.422;13.486;2022-12-10T16:13:32;27.67;;;20.13;;
9304;SDS011;4690;52.422;13.486;2022-12-10T16:16:05;26.73;;;20.27;;
9304;SDS011;4690;52.422;13.486;2022-12-10T16:18:34;27.37;;;19.67;;
9304;SDS011;4690;52.422;13.486;2022-12-10T16:21:02;31.50;;;20.43;;
9304;SDS011;4690;52.422;13.486;2022-12-10T16:23:29;26.13;;;20.43;;
9304;SDS011;4690;52.422;13.486;2022-12-10T16:25:56;27.17;;;20.20;;
9304;SDS011;4690;52.422;13.486;2022-12-10T16:28:23;30.20;;;21.00;;
9304;SDS011;4690;52.422;13.486;2022-12-10T16:30:50;29.87;;;21.77;;
9304;SDS011;4690;52.422;13.486;2022-12-10T16:33:19;29.80;;;22.00;;
9304;SDS011;4690;52.422;13.486;2022-12-10T16:35:47;27.40;;;21.23;;
9304;SDS011;4690;52.422;13.486;2022-12-10T16:38:16;29.03;;;21.37;;
9304;SDS011;4690;52.422;13.486;2022-12-10T16:40:43;30.43;;;21.40;;
9304;SDS011;4690;52.422;13.486;2022-12-10T16:43:18;30.67;;;21.83;;
9304;SDS011;4690;52.422;13.486;2022-12-10T16:45:53;30.57;;;21.40;;
9304;SDS011;4690;52.422;13.486;2022-12-10T16:48:19;28.83;;;20.27;;
9304;SDS011;4690;52.422;13.486;2022-12-10T16:50:47;30.90;;;20.20;;
9304;SDS011;4690;52.422;13.486;2022-12-10T16:55:51;34.33;;;22.53;;
9304;SDS011;4690;52.422;13.486;2022-12-10T16:58:19;31.57;;;22.10;;
9304;SDS011;4690;52.422;13.486;2022-12-10T17:00:47;31.50;;;21.57;;
9304;SDS011;4690;52.422;13.486;2022-12-10T17:03:17;31.53;;;21.80;;
9304;SDS011;4690;52.422;13.486;2022-12-10T17:08:21;32.27;;;21.53;;
9304;SDS011;4690;52.422;13.486;2022-12-10T17:10:48;31.60;;;21.43;;
9304;SDS011;4690;52.422;13.486;2022-12-10T17:13:34;33.70;;;22.40;;
9304;SDS011;4690;52.422;13.486;2022-12-10T17:16:01;33.23;;;21.90;;
9304;SDS011;4690;52.422;13.486;2022-12-10T17:18:29;32.00;;;21.00;;
9304;SDS011;4690;52.422;13.486;2022-12-10T17:20:58;30.50;;;20.80;;
9304;SDS011;4690;52.422;13.486;2022-12-10T17:23:24;30.27;;;21.43;;
9304;SDS011;4690;52.422;13.486;2022-12-10T17:25:50;29.80;;;22.03;;
9304;SDS011;4690;52.422;13.486;2022-12-10T17:28:17;32.50;;;22.07;;
9304;SDS011;4690;52.422;13.486;2022-12-10T17:30:47;33.23;;;22.30;;
9304;SDS011;4690;52.422;13.486;2022-12-10T17:33:14;30.03;;;20.83;;
9304;SDS011;4690;52.422;13.486;2022-12-10T17:35:44;29.57;;;21.13;;
9304;SDS011;4690;52.422;13.486;2022-12-10T17:38:16;32.37;;;20.63;;